createdAt,value
2023-01-07T00:01:41.347Z,94.98
2023-01-07T00:04:12.227Z,94.94
2023-01-07T00:06:41.583Z,95.27
2023-01-07T00:09:13.070Z,95.22
2023-01-07T00:11:41.430Z,95.36
2023-01-07T00:14:11.572Z,95.59
2023-01-07T00:16:39.633Z,95.21
2023-01-07T00:19:08.447Z,95.09
2023-01-07T00:21:36.048Z,95.25
2023-01-07T00:24:06.014Z,95.17
2023-01-07T00:26:36.170Z,95.47
2023-01-07T00:29:05.194Z,96.87
2023-01-07T00:31:35.354Z,95.40
2023-01-07T00:34:03.215Z,95.85
2023-01-07T00:36:33.054Z,97.13
2023-01-07T00:39:04.889Z,95.95
2023-01-07T00:41:33.486Z,95.79
2023-01-07T00:44:02.017Z,96.93
2023-01-07T00:46:29.810Z,95.67
2023-01-07T00:48:57.547Z,97.01
2023-01-07T00:51:25.335Z,94.67
2023-01-07T00:53:52.709Z,94.70
2023-01-07T00:56:20.272Z,93.65
2023-01-07T00:58:47.772Z,94.83
2023-01-07T01:01:16.809Z,94.78
2023-01-07T01:03:45.744Z,93.43
2023-01-07T01:06:16.791Z,93.02
2023-01-07T01:08:46.149Z,93.17
2023-01-07T01:11:16.059Z,93.27
2023-01-07T01:13:43.738Z,93.08
2023-01-07T01:16:18.049Z,93.10
2023-01-07T01:18:45.781Z,93.15
2023-01-07T01:21:15.934Z,93.72
2023-01-07T01:23:44.166Z,93.98
2023-01-07T01:26:14.496Z,94.11
2023-01-07T01:28:43.391Z,94.42
2023-01-07T01:31:12.420Z,93.37
2023-01-07T01:33:45.780Z,95.90
2023-01-07T01:36:13.336Z,93.88
2023-01-07T01:38:41.811Z,94.54
2023-01-07T01:41:10.097Z,96.07
2023-01-07T01:43:42.623Z,94.66
2023-01-07T01:46:18.594Z,94.89
2023-01-07T01:49:27.473Z,95.65
2023-01-07T01:52:20.336Z,94.65
2023-01-07T01:54:58.331Z,93.92
2023-01-07T01:57:28.041Z,93.97
2023-01-07T01:59:58.568Z,96.07
2023-01-07T02:02:36.522Z,93.17
2023-01-07T02:05:05.224Z,94.55
2023-01-07T02:07:33.109Z,95.07
2023-01-07T02:10:10.694Z,96.08
2023-01-07T02:12:56.777Z,96.73
2023-01-07T02:15:52.375Z,95.75
2023-01-07T02:18:32.076Z,95.63
2023-01-07T02:21:06.512Z,94.79
2023-01-07T02:24:11.421Z,94.69
2023-01-07T02:26:57.378Z,94.93
2023-01-07T02:29:58.201Z,94.73
2023-01-07T02:32:37.872Z,94.85
2023-01-07T02:35:40.947Z,97.00
2023-01-07T02:38:22.599Z,97.55
2023-01-07T02:41:20.007Z,98.20
2023-01-07T02:44:19.203Z,99.08
2023-01-07T02:46:57.440Z,98.33
2023-01-07T02:49:24.874Z,97.41
2023-01-07T02:51:52.587Z,98.20
2023-01-07T02:54:29.354Z,98.89
2023-01-07T02:57:12.693Z,98.21
2023-01-07T02:59:43.088Z,99.08
2023-01-07T03:02:20.262Z,98.73
2023-01-07T03:05:33.902Z,96.77
2023-01-07T03:08:23.975Z,97.25
2023-01-07T03:11:04.142Z,96.54
2023-01-07T03:13:58.952Z,96.07
2023-01-07T03:16:35.073Z,95.56
2023-01-07T03:19:16.540Z,96.00
2023-01-07T03:21:48.580Z,98.52
2023-01-07T03:24:17.127Z,98.29
2023-01-07T03:26:49.452Z,99.17
2023-01-07T03:29:19.231Z,99.18
2023-01-07T03:31:57.596Z,97.64
2023-01-07T03:34:29.051Z,96.58
2023-01-07T03:37:01.521Z,94.87
2023-01-07T03:39:32.884Z,94.67
2023-01-07T03:42:18.943Z,94.74
2023-01-07T03:44:46.564Z,95.51
2023-01-07T03:47:14.922Z,94.60
2023-01-07T03:49:42.872Z,95.42
2023-01-07T03:52:10.850Z,94.16
2023-01-07T03:54:38.379Z,91.33
2023-01-07T03:57:06.667Z,90.44
2023-01-07T03:59:34.064Z,92.86
2023-01-07T04:02:01.862Z,92.79
2023-01-07T04:04:29.934Z,95.86
2023-01-07T04:06:58.230Z,94.53
2023-01-07T04:09:27.944Z,98.56
2023-01-07T04:11:57.032Z,96.31
2023-01-07T04:14:24.647Z,96.73
2023-01-07T04:16:52.258Z,96.78
2023-01-07T04:19:22.133Z,98.81
2023-01-07T04:21:49.683Z,96.42
2023-01-07T04:24:17.086Z,97.87
2023-01-07T04:26:44.855Z,97.20
2023-01-07T04:29:12.680Z,98.50
2023-01-07T04:31:40.163Z,98.27
2023-01-07T04:34:08.222Z,98.74
2023-01-07T04:36:36.319Z,99.31
2023-01-07T04:39:04.130Z,98.33
2023-01-07T04:41:32.041Z,99.29
2023-01-07T04:43:59.737Z,100.00
2023-01-07T04:46:27.960Z,100.00
2023-01-07T04:48:56.382Z,100.00
2023-01-07T04:51:26.596Z,100.00
2023-01-07T04:53:54.017Z,100.00
2023-01-07T04:56:21.499Z,100.00
2023-01-07T04:58:49.441Z,100.00
2023-01-07T05:01:18.345Z,100.00
2023-01-07T05:03:45.887Z,100.00
2023-01-07T05:06:14.599Z,100.00
2023-01-07T05:08:42.854Z,100.00
2023-01-07T05:11:14.046Z,100.00
2023-01-07T05:13:43.582Z,98.90
2023-01-07T05:16:11.640Z,100.00
2023-01-07T05:18:40.831Z,100.00
2023-01-07T05:21:10.617Z,100.00
2023-01-07T05:23:39.197Z,99.92
2023-01-07T05:26:06.998Z,99.66
2023-01-07T05:28:34.476Z,98.96
2023-01-07T05:31:02.882Z,100.00
2023-01-07T05:33:31.794Z,100.00
2023-01-07T05:35:59.171Z,98.65
2023-01-07T05:38:26.469Z,100.00
2023-01-07T05:40:54.845Z,99.63
2023-01-07T05:43:26.985Z,99.48
2023-01-07T05:45:56.162Z,99.35
2023-01-07T05:48:23.562Z,100.00
2023-01-07T05:50:50.877Z,100.00
2023-01-07T05:53:18.526Z,99.70
2023-01-07T05:55:45.862Z,99.80
2023-01-07T05:58:13.396Z,100.00
2023-01-07T06:00:40.883Z,100.00
2023-01-07T06:03:08.268Z,100.00
2023-01-07T06:05:36.487Z,100.00
2023-01-07T06:08:04.043Z,100.00
2023-01-07T06:10:31.822Z,100.00
2023-01-07T06:12:59.127Z,100.00
2023-01-07T06:15:26.912Z,100.00
2023-01-07T06:17:54.535Z,100.00
2023-01-07T06:20:22.850Z,100.00
2023-01-07T06:22:50.341Z,100.00
2023-01-07T06:25:18.175Z,100.00
2023-01-07T06:27:45.932Z,100.00
2023-01-07T06:30:13.736Z,100.00
2023-01-07T06:32:43.287Z,100.00
2023-01-07T06:35:12.061Z,100.00
2023-01-07T06:37:39.494Z,100.00
2023-01-07T06:40:07.867Z,100.00
2023-01-07T06:42:36.002Z,100.00
2023-01-07T06:45:04.502Z,100.00
2023-01-07T06:47:32.022Z,100.00
2023-01-07T06:49:59.359Z,100.00
2023-01-07T06:52:26.826Z,100.00
2023-01-07T06:54:54.262Z,100.00
2023-01-07T06:57:21.733Z,100.00
2023-01-07T06:59:49.103Z,100.00
2023-01-07T07:02:25.420Z,100.00
2023-01-07T07:04:53.438Z,100.00
2023-01-07T07:07:21.581Z,100.00
2023-01-07T07:09:50.696Z,100.00
2023-01-07T07:12:19.794Z,100.00
2023-01-07T07:14:49.089Z,100.00
2023-01-07T07:17:16.591Z,100.00
2023-01-07T07:19:45.073Z,100.00
2023-01-07T07:22:12.444Z,100.00
2023-01-07T07:24:40.856Z,100.00
2023-01-07T07:27:08.969Z,99.57
2023-01-07T07:29:36.407Z,99.90
2023-01-07T07:32:04.084Z,100.00
2023-01-07T07:34:31.683Z,100.00
2023-01-07T07:36:59.056Z,100.00
2023-01-07T07:39:27.069Z,99.12
2023-01-07T07:41:54.453Z,98.74
2023-01-07T07:44:22.959Z,99.62
2023-01-07T07:46:50.362Z,100.00
2023-01-07T07:49:17.837Z,98.79
2023-01-07T07:51:45.120Z,99.06
2023-01-07T07:54:12.525Z,100.00
2023-01-07T07:56:40.852Z,99.74
2023-01-07T07:59:08.343Z,100.00
2023-01-07T08:01:37.359Z,99.93
2023-01-07T08:04:05.213Z,98.41
2023-01-07T08:06:34.288Z,97.49
2023-01-07T08:09:01.710Z,97.76
2023-01-07T08:11:29.025Z,96.68
2023-01-07T08:13:57.150Z,94.18
2023-01-07T08:16:24.563Z,96.34
2023-01-07T08:18:51.905Z,93.79
2023-01-07T08:21:19.224Z,92.34
2023-01-07T08:23:46.684Z,92.78
2023-01-07T08:26:14.159Z,92.38
2023-01-07T08:28:41.458Z,93.31
2023-01-07T08:31:09.290Z,93.66
2023-01-07T08:33:38.667Z,94.09
2023-01-07T08:36:14.920Z,93.67
2023-01-07T08:38:53.731Z,92.68
2023-01-07T08:41:22.588Z,93.30
2023-01-07T08:43:50.490Z,93.14
2023-01-07T08:46:17.953Z,93.69
2023-01-07T08:48:45.401Z,94.07
2023-01-07T08:51:12.839Z,93.17
2023-01-07T08:53:40.339Z,90.72
2023-01-07T08:56:07.893Z,92.52
2023-01-07T08:58:35.362Z,91.76
2023-01-07T09:01:05.997Z,91.02
2023-01-07T09:03:34.483Z,90.62
2023-01-07T09:06:01.992Z,91.52
2023-01-07T09:08:29.544Z,91.27
2023-01-07T09:10:56.871Z,91.68
2023-01-07T09:13:24.230Z,92.84
2023-01-07T09:15:52.769Z,91.56
2023-01-07T09:18:20.594Z,91.62
2023-01-07T09:20:48.195Z,91.34
2023-01-07T09:23:16.185Z,90.33
2023-01-07T09:25:43.620Z,91.54
2023-01-07T09:28:11.014Z,91.41
2023-01-07T09:30:38.494Z,91.15
2023-01-07T09:33:06.028Z,91.27
2023-01-07T09:35:33.577Z,91.75
2023-01-07T09:38:00.988Z,91.67
2023-01-07T09:40:32.339Z,92.78
2023-01-07T09:43:19.518Z,93.32
2023-01-07T09:45:49.505Z,91.54
2023-01-07T09:48:16.882Z,92.41
2023-01-07T09:50:53.060Z,92.53
2023-01-07T09:53:27.403Z,92.41
2023-01-07T09:56:12.019Z,91.71
2023-01-07T09:58:45.084Z,92.27
2023-01-07T10:01:27.103Z,93.51
2023-01-07T10:04:01.821Z,92.73
2023-01-07T10:06:53.426Z,93.32
2023-01-07T10:10:01.826Z,93.55
2023-01-07T10:12:57.483Z,94.14
2023-01-07T10:15:37.048Z,93.38
2023-01-07T10:18:19.193Z,94.23
2023-01-07T10:21:23.905Z,93.92
2023-01-07T10:24:10.758Z,94.56
2023-01-07T10:26:42.895Z,93.84
2023-01-07T10:29:15.589Z,94.57
2023-01-07T10:31:45.638Z,94.95
2023-01-07T10:34:16.734Z,94.48
2023-01-07T10:36:57.492Z,95.63
2023-01-07T10:39:24.776Z,95.86
2023-01-07T10:42:07.419Z,96.54
2023-01-07T10:45:03.745Z,96.57
2023-01-07T10:48:09.001Z,95.50
2023-01-07T10:50:50.365Z,95.30
2023-01-07T10:53:43.785Z,95.89
2023-01-07T10:56:21.908Z,96.54
2023-01-07T10:58:50.298Z,97.51
2023-01-07T11:01:40.027Z,96.61
2023-01-07T11:04:16.050Z,94.83
2023-01-07T11:06:52.525Z,94.58
2023-01-07T11:09:29.495Z,94.62
2023-01-07T11:14:46.772Z,94.64
2023-01-07T11:17:34.643Z,92.27
2023-01-07T11:20:02.676Z,92.34
2023-01-07T11:22:33.553Z,93.44
2023-01-07T11:25:03.006Z,93.65
2023-01-07T11:27:34.249Z,94.61
2023-01-07T11:30:25.958Z,94.00
2023-01-07T11:33:03.664Z,94.07
2023-01-07T11:35:31.533Z,93.99
2023-01-07T11:37:59.959Z,94.21
2023-01-07T11:40:31.606Z,93.90
2023-01-07T11:43:03.483Z,92.89
2023-01-07T11:45:36.974Z,93.66
2023-01-07T11:48:19.589Z,94.13
2023-01-07T11:51:02.343Z,93.42
2023-01-07T11:53:34.121Z,93.75
2023-01-07T11:56:21.224Z,93.65
2023-01-07T11:58:51.071Z,93.90
2023-01-07T12:01:23.752Z,94.05
2023-01-07T12:03:54.296Z,94.67
2023-01-07T12:06:21.618Z,94.64
2023-01-07T12:09:15.143Z,95.50
2023-01-07T12:11:44.424Z,94.25
2023-01-07T12:14:33.544Z,94.68
2023-01-07T12:17:21.831Z,93.66
2023-01-07T12:19:55.185Z,94.18
2023-01-07T12:22:44.448Z,94.54
2023-01-07T12:25:46.181Z,94.11
2023-01-07T12:28:18.518Z,93.54
2023-01-07T12:31:13.883Z,93.07
2023-01-07T12:34:02.587Z,94.87
2023-01-07T12:36:37.861Z,93.88
2023-01-07T12:39:15.892Z,93.70
2023-01-07T12:41:48.727Z,92.80
2023-01-07T12:44:22.803Z,94.29
2023-01-07T12:47:30.773Z,94.32
2023-01-07T12:50:06.249Z,95.34
2023-01-07T12:53:03.314Z,95.09
2023-01-07T12:55:49.437Z,95.60
2023-01-07T12:58:19.746Z,95.94
2023-01-07T13:01:04.234Z,95.94
2023-01-07T13:03:57.928Z,94.76
2023-01-07T13:06:53.190Z,94.75
2023-01-07T13:09:29.570Z,94.88
2023-01-07T13:12:40.723Z,96.43
2023-01-07T13:15:16.353Z,96.85
2023-01-07T13:17:44.077Z,97.01
2023-01-07T13:20:13.229Z,96.68
2023-01-07T13:22:49.515Z,97.40
2023-01-07T13:25:26.790Z,97.40
2023-01-07T13:28:16.661Z,97.15
2023-01-07T13:31:02.493Z,98.13
2023-01-07T13:34:08.049Z,97.99
2023-01-07T13:36:45.108Z,97.59
2023-01-07T13:39:47.868Z,97.90
2023-01-07T13:42:49.013Z,97.99
2023-01-07T13:45:21.878Z,99.46
2023-01-07T13:47:52.317Z,97.82
2023-01-07T13:50:24.935Z,97.09
2023-01-07T13:52:58.524Z,98.22
2023-01-07T13:55:28.998Z,98.85
2023-01-07T13:57:56.333Z,98.93
2023-01-07T14:00:40.869Z,98.85
2023-01-07T14:03:27.098Z,98.03
2023-01-07T14:06:19.733Z,99.26
2023-01-07T14:08:55.079Z,98.76
2023-01-07T14:11:32.507Z,98.99
2023-01-07T14:14:07.764Z,99.53
2023-01-07T14:16:49.166Z,100.00
2023-01-07T14:19:54.029Z,99.16
2023-01-07T14:22:46.548Z,99.87
2023-01-07T14:25:51.837Z,100.00
2023-01-07T14:28:44.252Z,100.00
2023-01-07T14:31:27.928Z,100.00
2023-01-07T14:33:58.572Z,99.96
2023-01-07T14:37:09.688Z,99.78
2023-01-07T14:39:45.230Z,100.00
2023-01-07T14:42:18.798Z,100.00
2023-01-07T14:44:52.850Z,99.83
2023-01-07T14:47:45.197Z,100.00
2023-01-07T14:50:43.098Z,100.00
2023-01-07T14:53:16.476Z,100.00
2023-01-07T14:56:04.787Z,100.00
2023-01-07T14:58:50.869Z,100.00
2023-01-07T15:01:52.052Z,100.00
2023-01-07T15:04:37.780Z,100.00
2023-01-07T15:07:13.290Z,100.00
2023-01-07T15:10:09.482Z,100.00
2023-01-07T15:13:12.927Z,100.00
2023-01-07T15:16:04.260Z,100.00
2023-01-07T15:18:42.611Z,100.00
2023-01-07T15:21:33.134Z,100.00
2023-01-07T15:24:22.486Z,100.00
2023-01-07T15:27:00.902Z,100.00
2023-01-07T15:29:42.427Z,100.00
2023-01-07T15:32:28.654Z,100.00
2023-01-07T15:34:57.012Z,100.00
2023-01-07T15:37:24.704Z,100.00
2023-01-07T15:39:57.832Z,100.00
2023-01-07T15:42:27.355Z,100.00
2023-01-07T15:44:58.014Z,100.00
2023-01-07T15:47:40.944Z,100.00
2023-01-07T15:50:25.779Z,100.00
2023-01-07T15:53:18.610Z,100.00
2023-01-07T15:55:48.943Z,100.00
2023-01-07T15:58:20.294Z,100.00
2023-01-07T16:00:52.573Z,100.00
2023-01-07T16:03:21.648Z,100.00
2023-01-07T16:05:49.497Z,100.00
2023-01-07T16:08:19.964Z,100.00
2023-01-07T16:11:09.090Z,100.00
2023-01-07T16:13:36.875Z,100.00
2023-01-07T16:16:06.643Z,100.00
2023-01-07T16:18:34.267Z,100.00
2023-01-07T16:21:08.366Z,100.00
2023-01-07T16:23:37.764Z,100.00
2023-01-07T16:26:13.076Z,100.00
2023-01-07T16:28:52.437Z,100.00
2023-01-07T16:31:22.764Z,100.00
2023-01-07T16:33:53.584Z,100.00
2023-01-07T16:36:23.926Z,100.00
2023-01-07T16:38:53.934Z,100.00
2023-01-07T16:41:26.964Z,100.00
2023-01-07T16:43:56.172Z,100.00
2023-01-07T16:46:37.163Z,100.00
2023-01-07T16:49:19.787Z,100.00
2023-01-07T16:52:02.405Z,100.00
2023-01-07T16:54:37.205Z,100.00
2023-01-07T16:57:10.794Z,100.00
2023-01-07T16:59:45.486Z,100.00
2023-01-07T17:02:52.325Z,100.00
2023-01-07T17:05:28.356Z,100.00
2023-01-07T17:08:01.056Z,100.00
2023-01-07T17:10:32.385Z,100.00
2023-01-07T17:13:14.801Z,100.00
2023-01-07T17:15:43.441Z,100.00
2023-01-07T17:18:17.019Z,100.00
2023-01-07T17:20:56.769Z,100.00
2023-01-07T17:23:27.469Z,100.00
2023-01-07T17:26:03.120Z,100.00
2023-01-07T17:28:34.425Z,100.00
2023-01-07T17:31:02.024Z,100.00
2023-01-07T17:33:30.079Z,100.00
2023-01-07T17:35:57.696Z,100.00
2023-01-07T17:38:25.233Z,100.00
2023-01-07T17:40:54.547Z,100.00
2023-01-07T17:43:33.727Z,100.00
2023-01-07T17:46:01.673Z,100.00
2023-01-07T17:48:29.444Z,100.00
2023-01-07T17:50:58.295Z,100.00
2023-01-07T17:53:30.735Z,100.00
2023-01-07T17:55:58.552Z,100.00
2023-01-07T17:58:34.655Z,100.00
2023-01-07T18:01:06.665Z,100.00
2023-01-07T18:03:34.368Z,100.00
2023-01-07T18:06:02.698Z,100.00
2023-01-07T18:08:30.168Z,100.00
2023-01-07T18:11:16.441Z,100.00
2023-01-07T18:13:43.933Z,100.00
2023-01-07T18:16:13.528Z,100.00
2023-01-07T18:18:41.044Z,100.00
2023-01-07T18:21:11.345Z,100.00
2023-01-07T18:23:38.911Z,100.00
2023-01-07T18:26:06.639Z,100.00
2023-01-07T18:28:34.266Z,100.00
2023-01-07T18:31:01.673Z,100.00
2023-01-07T18:33:29.146Z,100.00
2023-01-07T18:35:56.557Z,100.00
2023-01-07T18:38:24.043Z,100.00
2023-01-07T18:40:51.731Z,100.00
2023-01-07T18:43:19.440Z,100.00
2023-01-07T18:45:48.082Z,100.00
2023-01-07T18:48:18.236Z,100.00
2023-01-07T18:50:50.213Z,100.00
2023-01-07T18:53:19.054Z,100.00
2023-01-07T18:55:46.624Z,100.00
2023-01-07T18:58:15.307Z,100.00
2023-01-07T19:00:42.928Z,100.00
2023-01-07T19:03:11.057Z,100.00
2023-01-07T19:05:40.898Z,100.00
2023-01-07T19:08:08.461Z,100.00
2023-01-07T19:10:41.412Z,100.00
2023-01-07T19:13:08.910Z,100.00
2023-01-07T19:15:36.453Z,100.00
2023-01-07T19:18:04.075Z,100.00
2023-01-07T19:20:31.555Z,100.00
2023-01-07T19:23:01.164Z,100.00
2023-01-07T19:25:30.060Z,100.00
2023-01-07T19:27:58.064Z,100.00
2023-01-07T19:30:26.049Z,100.00
2023-01-07T19:32:54.487Z,100.00
2023-01-07T19:35:21.810Z,100.00
2023-01-07T19:37:50.176Z,100.00
2023-01-07T19:40:17.750Z,100.00
2023-01-07T19:42:45.277Z,100.00
2023-01-07T19:45:12.581Z,100.00
2023-01-07T19:47:40.047Z,100.00
2023-01-07T19:50:07.900Z,100.00
2023-01-07T19:52:35.430Z,100.00
2023-01-07T19:55:02.891Z,100.00
2023-01-07T19:57:30.976Z,100.00
2023-01-07T19:59:59.522Z,100.00
2023-01-07T20:02:27.372Z,100.00
2023-01-07T20:04:55.196Z,100.00
2023-01-07T20:07:22.906Z,100.00
2023-01-07T20:09:50.727Z,100.00
2023-01-07T20:12:19.874Z,100.00
2023-01-07T20:14:47.764Z,100.00
2023-01-07T20:17:15.346Z,100.00
2023-01-07T20:19:45.324Z,100.00
2023-01-07T20:22:12.944Z,100.00
2023-01-07T20:24:40.540Z,100.00
2023-01-07T20:27:08.160Z,100.00
2023-01-07T20:29:36.783Z,100.00
2023-01-07T20:32:07.444Z,100.00
2023-01-07T20:34:35.012Z,100.00
2023-01-07T20:37:02.649Z,100.00
2023-01-07T20:39:30.227Z,100.00
2023-01-07T20:41:59.875Z,100.00
2023-01-07T20:44:28.940Z,100.00
2023-01-07T20:46:57.218Z,100.00
2023-01-07T20:49:25.899Z,100.00
2023-01-07T20:52:16.551Z,100.00
2023-01-07T20:54:46.058Z,100.00
2023-01-07T20:57:16.376Z,100.00
2023-01-07T20:59:44.105Z,100.00
2023-01-07T21:02:17.072Z,100.00
2023-01-07T21:04:44.843Z,100.00
2023-01-07T21:07:12.499Z,100.00
2023-01-07T21:09:41.328Z,100.00
2023-01-07T21:12:10.233Z,100.00
2023-01-07T21:14:37.798Z,100.00
2023-01-07T21:17:06.843Z,100.00
2023-01-07T21:19:34.567Z,100.00
2023-01-07T21:22:02.023Z,100.00
2023-01-07T21:24:30.514Z,100.00
2023-01-07T21:26:58.679Z,100.00
2023-01-07T21:29:27.434Z,100.00
2023-01-07T21:31:55.219Z,100.00
2023-01-07T21:34:22.980Z,100.00
2023-01-07T21:36:50.662Z,100.00
2023-01-07T21:39:18.213Z,100.00
2023-01-07T21:41:45.603Z,100.00
2023-01-07T21:44:13.198Z,100.00
2023-01-07T21:46:40.891Z,100.00
2023-01-07T21:49:08.569Z,100.00
2023-01-07T21:51:35.876Z,100.00
2023-01-07T21:54:03.409Z,100.00
2023-01-07T21:56:32.722Z,100.00
2023-01-07T21:59:00.701Z,100.00
2023-01-07T22:01:29.520Z,100.00
2023-01-07T22:03:59.024Z,100.00
2023-01-07T22:06:30.793Z,100.00
2023-01-07T22:09:00.954Z,100.00
2023-01-07T22:11:28.941Z,100.00
2023-01-07T22:13:59.089Z,100.00
2023-01-07T22:16:29.765Z,100.00
2023-01-07T22:18:57.739Z,100.00
2023-01-07T22:21:25.609Z,100.00
2023-01-07T22:23:53.176Z,100.00
2023-01-07T22:26:21.473Z,100.00
2023-01-07T22:28:53.189Z,100.00
2023-01-07T22:31:27.025Z,100.00
2023-01-07T22:33:55.386Z,100.00
2023-01-07T22:36:31.695Z,100.00
2023-01-07T22:39:03.068Z,100.00
2023-01-07T22:41:33.800Z,100.00
2023-01-07T22:44:05.283Z,100.00
2023-01-07T22:46:36.463Z,100.00
2023-01-07T22:49:04.900Z,100.00
2023-01-07T22:51:40.257Z,100.00
2023-01-07T22:54:07.950Z,100.00
2023-01-07T22:56:35.658Z,100.00
2023-01-07T22:59:03.209Z,100.00
2023-01-07T23:01:31.978Z,100.00
2023-01-07T23:03:59.444Z,100.00
2023-01-07T23:06:28.637Z,100.00
2023-01-07T23:08:56.032Z,100.00
2023-01-07T23:11:41.930Z,100.00
2023-01-07T23:14:10.010Z,100.00
2023-01-07T23:16:37.582Z,100.00
2023-01-07T23:19:05.297Z,100.00
2023-01-07T23:21:33.032Z,100.00
2023-01-07T23:24:00.809Z,100.00
2023-01-07T23:26:28.310Z,100.00
2023-01-07T23:28:55.707Z,100.00
2023-01-07T23:31:23.292Z,100.00
2023-01-07T23:33:51.552Z,100.00
2023-01-07T23:36:18.986Z,100.00
2023-01-07T23:38:46.413Z,100.00
2023-01-07T23:41:13.916Z,100.00
2023-01-07T23:43:41.397Z,100.00
2023-01-07T23:46:10.424Z,100.00
2023-01-07T23:48:39.153Z,100.00
2023-01-07T23:51:10.500Z,100.00
2023-01-07T23:53:38.505Z,100.00
2023-01-07T23:56:07.247Z,100.00
2023-01-07T23:58:36.445Z,100.00
